メインページ
METAR-TAF:

METAR-TAF

空港 :

アテネ, ギリシャ

アテネ国際空港

緯度: 37-56N, 経度: 023-56E, 海抜: 94m

現時点の気象観測

当レポートは31分前の11:20(UTC)に作成
北東の風 10kt
気温 22°C
湿度 43%
気圧 1016 hPa
視程10km以上
高度3500ftの雲はほとんどない
霧雨

METAR: LGAV 241120Z 05010KT 9999 DZ FEW035 22/09 Q1016 NOSIG

時間: 14:51 (11:51 UTC)

予報

当レポートは51分前の11:00(UTC)に作成
予報は24日の 12時(UTC)から 25日の 12時(UTC)まで有効
南東の風 8kt
視程10km以上
高度3000ftの雲はほとんどない
高度7000ftの雲は散在している
確率 30% :
24日の 12時(UTC)から 24日の 16時(UTC)まで一時的に
視程: 4000m
高度1800ftの雲はほとんどない, 積乱雲.
高度2000ftの雲は散在している
高度7000ftの千切れ雲あり
にわか雨
24日の 18時(UTC)から 24日の 20時(UTC)まで徐々に
変向風 5kt
高度3000ftの雲はほとんどない
確率 30% :
25日の 09時(UTC)から 25日の 12時(UTC)まで一時的に
視程: 5000m
高度1800ftの雲はほとんどない, 積乱雲.
高度2000ftの雲は散在している
高度7000ftの千切れ雲あり
にわか雨
25日の 07時(UTC)から 25日の 09時(UTC)まで徐々に
の風 8kt

TAF: LGAV 241100Z 2412/2512 13008KT 9999 FEW030 SCT070 PROB30 TEMPO 2412/2416 4000 SHRA FEW018CB SCT020 BKN070 BECMG 2418/2420 VRB05KT FEW030 PROB30 TEMPO 2509/2512 5000 SHRA FEW018CB SCT020 BKN070 BECMG 2507/2509 10008KT

4,000以上の空港の気象観測と天気予報(METAR報とTAF報)

利用可能な観測所は地図上に黄色い丸と赤い丸で示す。

丸の上にカーソルを重ねると観測所名を参照できる。

次にクリックすると気象観測と天気予報を参照できる。

マップの切り替え:黒色「×」印の緑ボタンをクリックして拡大、「-」印の緑ボタンをクリックして縮小、緑色の三角印をクリックして隣りの地図に切り替え


METAR-TAF: